createdAt,value
2022-08-23T00:02:31.245Z,22.30
2022-08-23T00:05:08.927Z,22.31
2022-08-23T00:07:40.626Z,22.22
2022-08-23T00:10:12.668Z,22.27
2022-08-23T00:12:44.545Z,22.13
2022-08-23T00:15:18.044Z,22.15
2022-08-23T00:17:50.440Z,22.24
2022-08-23T00:20:21.327Z,22.34
2022-08-23T00:22:51.215Z,22.25
2022-08-23T00:25:22.143Z,22.24
2022-08-23T00:27:52.060Z,22.30
2022-08-23T00:30:22.003Z,22.25
2022-08-23T00:33:03.086Z,22.34
2022-08-23T00:35:33.432Z,22.31
2022-08-23T00:38:31.594Z,22.35
2022-08-23T00:40:54.928Z,22.26
2022-08-23T00:43:48.799Z,22.35
2022-08-23T00:46:46.827Z,22.37
2022-08-23T00:49:19.090Z,22.35
2022-08-23T00:51:58.298Z,22.39
2022-08-23T00:54:31.132Z,22.45
2022-08-23T00:57:05.526Z,22.46
2022-08-23T00:59:36.701Z,22.53
2022-08-23T01:02:07.299Z,22.46
2022-08-23T01:04:44.471Z,22.51
2022-08-23T01:07:23.725Z,22.39
2022-08-23T01:09:56.671Z,22.39
2022-08-23T01:12:33.912Z,22.40
2022-08-23T01:15:11.637Z,22.49
2022-08-23T01:17:44.602Z,22.48
2022-08-23T01:20:19.481Z,22.42
2022-08-23T01:22:57.633Z,22.43
2022-08-23T01:25:33.795Z,22.40
2022-08-23T01:28:05.026Z,22.43
2022-08-23T01:30:39.021Z,22.31
2022-08-23T01:33:09.152Z,22.42
2022-08-23T01:35:42.386Z,22.47
2022-08-23T01:38:13.933Z,22.35
2022-08-23T01:40:46.373Z,22.47
2022-08-23T01:43:19.772Z,22.41
2022-08-23T01:45:51.007Z,22.50
2022-08-23T01:48:21.793Z,22.36
2022-08-23T01:50:51.815Z,22.43
2022-08-23T01:53:21.877Z,22.32
2022-08-23T01:55:53.295Z,22.27
2022-08-23T01:58:23.613Z,22.26
2022-08-23T02:00:54.144Z,22.31
2022-08-23T02:03:24.748Z,22.32
2022-08-23T02:05:54.727Z,22.10
2022-08-23T02:08:42.281Z,22.18
2022-08-23T02:11:22.189Z,22.14
2022-08-23T02:13:55.023Z,22.24
2022-08-23T02:16:27.177Z,22.23
2022-08-23T02:19:02.309Z,21.98
2022-08-23T02:21:32.800Z,22.06
2022-08-23T02:24:06.939Z,22.13
2022-08-23T02:26:39.357Z,22.11
2022-08-23T02:29:09.967Z,22.12
2022-08-23T02:31:40.066Z,22.00
2022-08-23T02:34:11.390Z,22.07
2022-08-23T02:36:41.598Z,22.10
2022-08-23T02:39:15.068Z,22.01
2022-08-23T02:41:46.461Z,22.01
2022-08-23T02:44:16.852Z,22.00
2022-08-23T02:46:47.502Z,21.85
2022-08-23T02:49:18.380Z,21.86
2022-08-23T02:51:49.499Z,21.89
2022-08-23T02:54:19.591Z,21.84
2022-08-23T02:56:52.778Z,21.86
2022-08-23T02:59:22.883Z,21.84
2022-08-23T03:01:53.219Z,21.79
2022-08-23T03:04:24.002Z,21.61
2022-08-23T03:06:54.163Z,21.80
2022-08-23T03:09:24.288Z,21.82
2022-08-23T03:11:56.241Z,21.88
2022-08-23T03:14:27.742Z,21.72
2022-08-23T03:16:58.331Z,21.79
2022-08-23T03:19:28.804Z,21.80
2022-08-23T03:21:58.737Z,21.72
2022-08-23T03:24:29.845Z,21.69
2022-08-23T03:27:01.252Z,21.67
2022-08-23T03:29:31.978Z,21.79
2022-08-23T03:32:02.273Z,21.77
2022-08-23T03:34:33.030Z,21.77
2022-08-23T03:37:03.389Z,21.84
2022-08-23T03:39:33.700Z,21.78
2022-08-23T03:42:05.375Z,21.73
2022-08-23T03:44:35.475Z,21.65
2022-08-23T03:47:06.775Z,21.74
2022-08-23T03:49:37.255Z,21.79
2022-08-23T03:52:07.660Z,21.64
2022-08-23T03:54:39.703Z,21.70
2022-08-23T03:57:11.444Z,21.62
2022-08-23T03:59:42.716Z,21.59
2022-08-23T04:02:13.648Z,21.64
2022-08-23T04:04:43.698Z,21.65
2022-08-23T04:07:13.747Z,21.68
2022-08-23T04:09:44.521Z,21.65
2022-08-23T04:12:17.863Z,21.77
2022-08-23T04:14:48.404Z,21.69
2022-08-23T04:17:21.060Z,21.76
2022-08-23T04:19:51.226Z,21.71
2022-08-23T04:22:21.624Z,21.74
2022-08-23T04:24:51.697Z,21.66
2022-08-23T04:27:23.296Z,21.76
2022-08-23T04:29:53.285Z,21.73
2022-08-23T04:32:28.098Z,21.81
2022-08-23T04:34:58.727Z,21.75
2022-08-23T04:37:29.202Z,21.85
2022-08-23T04:40:16.565Z,21.79
2022-08-23T04:42:48.735Z,21.84
2022-08-23T04:45:19.137Z,21.81
2022-08-23T04:47:49.261Z,21.88
2022-08-23T04:50:19.958Z,21.87
2022-08-23T04:52:49.944Z,21.89
2022-08-23T04:55:20.300Z,21.91
2022-08-23T04:57:52.454Z,21.98
2022-08-23T05:00:22.973Z,22.04
2022-08-23T05:02:57.908Z,22.13
2022-08-23T05:05:28.269Z,22.11
2022-08-23T05:07:58.307Z,21.92
2022-08-23T05:10:28.802Z,22.17
2022-08-23T05:13:00.835Z,22.32
2022-08-23T05:15:31.767Z,22.41
2022-08-23T05:18:01.844Z,22.36
2022-08-23T05:20:32.516Z,22.35
2022-08-23T05:23:03.530Z,22.29
2022-08-23T05:25:47.479Z,22.45
2022-08-23T05:28:19.632Z,22.39
2022-08-23T05:30:57.236Z,22.48
2022-08-23T05:33:28.317Z,22.45
2022-08-23T05:35:58.458Z,22.47
2022-08-23T05:38:29.136Z,22.62
2022-08-23T05:41:02.129Z,22.62
2022-08-23T05:43:36.977Z,22.67
2022-08-23T05:46:13.005Z,22.72
2022-08-23T05:48:46.955Z,22.93
2022-08-23T05:51:18.123Z,23.02
2022-08-23T05:53:50.627Z,22.88
2022-08-23T05:56:23.234Z,22.89
2022-08-23T05:58:59.941Z,22.78
2022-08-23T06:01:32.188Z,22.92
2022-08-23T06:04:03.133Z,22.91
2022-08-23T06:06:37.364Z,22.91
2022-08-23T06:09:11.385Z,23.00
2022-08-23T06:11:42.367Z,22.97
2022-08-23T06:14:14.617Z,22.71
2022-08-23T06:16:47.618Z,23.04
2022-08-23T06:19:18.262Z,23.17
2022-08-23T06:21:48.545Z,23.26
2022-08-23T06:24:18.772Z,23.26
2022-08-23T06:26:50.039Z,23.35
2022-08-23T06:29:22.118Z,23.34
2022-08-23T06:31:53.690Z,23.39
2022-08-23T06:34:25.968Z,23.42
2022-08-23T06:36:58.500Z,23.44
2022-08-23T06:39:33.446Z,23.45
2022-08-23T06:42:28.054Z,23.47
2022-08-23T06:45:00.148Z,23.23
2022-08-23T06:47:31.675Z,23.62
2022-08-23T06:50:02.042Z,23.64
2022-08-23T06:52:32.477Z,23.57
2022-08-23T06:55:03.778Z,23.67
2022-08-23T06:57:34.090Z,23.68
2022-08-23T07:00:07.197Z,23.73
2022-08-23T07:02:37.765Z,23.74
2022-08-23T07:05:08.457Z,23.85
2022-08-23T07:07:41.450Z,23.88
2022-08-23T07:10:16.089Z,23.90
2022-08-23T07:12:46.843Z,23.93
2022-08-23T07:15:18.831Z,24.08
2022-08-23T07:17:48.952Z,24.16
2022-08-23T07:20:19.380Z,23.98
2022-08-23T07:22:49.436Z,24.39
2022-08-23T07:25:19.393Z,24.61
2022-08-23T07:27:49.289Z,24.65
2022-08-23T07:30:21.321Z,24.76
2022-08-23T07:32:51.540Z,24.79
2022-08-23T07:35:22.435Z,24.89
2022-08-23T07:37:52.767Z,24.91
2022-08-23T07:40:22.850Z,25.00
2022-08-23T07:42:58.509Z,25.02
2022-08-23T07:45:31.065Z,25.08
2022-08-23T07:48:03.527Z,25.16
2022-08-23T07:50:33.783Z,25.12
2022-08-23T07:53:04.104Z,25.03
2022-08-23T07:55:34.357Z,25.12
2022-08-23T07:58:04.632Z,25.25
2022-08-23T08:00:37.380Z,25.34
2022-08-23T08:03:07.908Z,25.40
2022-08-23T08:05:38.174Z,25.43
2022-08-23T08:08:10.030Z,25.46
2022-08-23T08:10:41.709Z,25.35
2022-08-23T08:13:12.495Z,25.22
2022-08-23T08:15:44.240Z,25.42
2022-08-23T08:18:15.224Z,25.50
2022-08-23T08:20:45.546Z,25.58
2022-08-23T08:23:15.497Z,25.48
2022-08-23T08:25:45.761Z,25.60
2022-08-23T08:28:16.263Z,25.77
2022-08-23T08:30:47.687Z,25.92
2022-08-23T08:33:17.620Z,26.12
2022-08-23T08:35:59.366Z,26.13
2022-08-23T08:38:32.590Z,26.11
2022-08-23T08:41:16.849Z,26.14
2022-08-23T08:43:59.123Z,26.19
2022-08-23T08:46:45.693Z,26.19
2022-08-23T08:49:21.467Z,26.13
2022-08-23T08:51:57.115Z,25.92
2022-08-23T08:54:30.316Z,26.30
2022-08-23T08:57:02.604Z,26.24
2022-08-23T08:59:44.088Z,26.43
2022-08-23T09:02:31.789Z,26.47
2022-08-23T09:05:05.979Z,26.52
2022-08-23T09:07:47.908Z,26.57
2022-08-23T09:10:30.511Z,26.62
2022-08-23T09:13:15.580Z,26.45
2022-08-23T09:15:59.140Z,26.42
2022-08-23T09:18:35.442Z,26.36
2022-08-23T09:21:08.880Z,26.28
2022-08-23T09:23:43.444Z,26.33
2022-08-23T09:26:24.572Z,26.40
2022-08-23T09:28:57.527Z,26.39
2022-08-23T09:31:38.761Z,26.39
2022-08-23T09:34:16.385Z,26.53
2022-08-23T09:36:47.057Z,26.61
2022-08-23T09:39:30.630Z,26.69
2022-08-23T09:42:01.225Z,26.74
2022-08-23T09:44:37.942Z,26.75
2022-08-23T09:47:12.984Z,26.84
2022-08-23T09:49:45.984Z,26.79
2022-08-23T09:52:22.836Z,26.79
2022-08-23T09:54:58.579Z,26.67
2022-08-23T09:57:32.134Z,26.84
2022-08-23T10:00:18.696Z,26.87
2022-08-23T10:02:48.930Z,26.86
2022-08-23T10:05:22.040Z,26.98
2022-08-23T10:07:57.222Z,26.97
2022-08-23T10:10:32.354Z,27.03
2022-08-23T10:13:04.606Z,27.08
2022-08-23T10:15:53.621Z,27.06
2022-08-23T10:18:36.328Z,27.07
2022-08-23T10:21:24.439Z,26.97
2022-08-23T10:24:15.553Z,27.24
2022-08-23T10:27:24.565Z,27.08
2022-08-23T10:30:05.611Z,27.23
2022-08-23T10:32:56.904Z,27.01
2022-08-23T10:35:37.910Z,27.33
2022-08-23T10:38:33.561Z,27.25
2022-08-23T10:41:18.038Z,27.32
2022-08-23T10:43:56.067Z,27.26
2022-08-23T10:46:31.067Z,27.39
2022-08-23T10:49:03.916Z,27.39
2022-08-23T10:51:40.533Z,27.42
2022-08-23T10:54:18.864Z,27.42
2022-08-23T10:56:51.339Z,27.43
2022-08-23T10:59:25.026Z,27.41
2022-08-23T11:02:01.872Z,27.21
2022-08-23T11:04:39.655Z,27.45
2022-08-23T11:07:18.173Z,27.39
2022-08-23T11:09:53.683Z,27.47
2022-08-23T11:12:30.947Z,27.47
2022-08-23T11:15:36.964Z,27.49
2022-08-23T11:18:40.602Z,27.58
2022-08-23T11:21:44.708Z,27.32
2022-08-23T11:24:55.375Z,27.53
2022-08-23T11:27:34.751Z,27.46
2022-08-23T11:30:42.317Z,27.50
2022-08-23T11:33:20.661Z,27.53
2022-08-23T11:35:53.025Z,27.56
2022-08-23T11:38:59.984Z,27.64
2022-08-23T11:41:32.784Z,27.62
2022-08-23T11:44:24.661Z,27.63
2022-08-23T11:47:01.459Z,27.59
2022-08-23T11:49:58.799Z,27.68
2022-08-23T11:53:01.277Z,27.68
2022-08-23T11:56:02.273Z,27.67
2022-08-23T11:58:54.820Z,27.72
2022-08-23T12:01:33.147Z,27.77
2022-08-23T12:04:10.722Z,27.67
2022-08-23T12:06:50.903Z,27.83
2022-08-23T12:09:57.231Z,27.82
2022-08-23T12:12:39.215Z,27.85
2022-08-23T12:15:13.696Z,27.88
2022-08-23T12:18:10.935Z,28.00
2022-08-23T12:20:42.530Z,28.05
2022-08-23T12:23:22.052Z,28.06
2022-08-23T12:26:05.815Z,28.14
2022-08-23T12:28:42.363Z,28.03
2022-08-23T12:31:25.826Z,28.11
2022-08-23T12:34:10.992Z,28.07
2022-08-23T12:36:50.116Z,28.17
2022-08-23T12:39:28.808Z,28.17
2022-08-23T12:42:07.001Z,28.11
2022-08-23T12:44:36.956Z,27.94
2022-08-23T12:47:14.927Z,28.19
2022-08-23T12:49:56.650Z,28.00
2022-08-23T12:52:29.469Z,28.00
2022-08-23T12:55:01.269Z,28.07
2022-08-23T12:57:39.029Z,27.98
2022-08-23T13:00:20.382Z,28.12
2022-08-23T13:02:58.692Z,27.98
2022-08-23T13:05:37.686Z,27.95
2022-08-23T13:08:11.525Z,27.98
2022-08-23T13:10:43.981Z,27.91
2022-08-23T13:13:17.372Z,28.01
2022-08-23T13:15:52.081Z,27.99
2022-08-23T13:18:30.805Z,28.01
2022-08-23T13:21:28.348Z,28.11
2022-08-23T13:24:01.054Z,28.20
2022-08-23T13:26:39.494Z,28.34
2022-08-23T13:29:23.478Z,28.21
2022-08-23T13:32:02.667Z,28.22
2022-08-23T13:34:47.141Z,28.29
2022-08-23T13:37:27.833Z,28.26
2022-08-23T13:40:01.496Z,27.89
2022-08-23T13:42:38.208Z,28.06
2022-08-23T13:45:16.892Z,28.11
2022-08-23T13:47:50.029Z,28.06
2022-08-23T13:50:27.966Z,28.01
2022-08-23T13:53:14.449Z,27.95
2022-08-23T13:55:50.377Z,28.03
2022-08-23T13:58:29.747Z,27.76
2022-08-23T14:01:02.645Z,28.10
2022-08-23T14:03:33.041Z,28.17
2022-08-23T14:06:05.135Z,27.99
2022-08-23T14:08:35.364Z,28.27
2022-08-23T14:11:05.894Z,28.23
2022-08-23T14:13:43.528Z,28.23
2022-08-23T14:16:35.229Z,28.21
2022-08-23T14:19:16.861Z,28.33
2022-08-23T14:22:03.534Z,28.34
2022-08-23T14:24:34.510Z,28.51
2022-08-23T14:27:05.722Z,28.38
2022-08-23T14:29:37.100Z,28.27
2022-08-23T14:32:08.201Z,28.15
2022-08-23T14:34:41.578Z,28.12
2022-08-23T14:40:09.646Z,28.38
2022-08-23T14:42:40.344Z,28.37
2022-08-23T14:45:11.685Z,28.51
2022-08-23T14:47:43.278Z,28.62
2022-08-23T14:50:17.040Z,28.63
2022-08-23T14:52:50.200Z,28.72
2022-08-23T14:55:24.874Z,28.52
2022-08-23T14:57:55.444Z,28.61
2022-08-23T15:00:25.981Z,28.63
2022-08-23T15:02:56.517Z,28.61
2022-08-23T15:05:27.840Z,28.68
2022-08-23T15:07:59.713Z,28.76
2022-08-23T15:11:33.194Z,28.88
2022-08-23T15:13:33.391Z,28.94
2022-08-23T15:16:05.667Z,28.87
2022-08-23T15:18:37.867Z,28.83
2022-08-23T15:21:10.082Z,28.82
2022-08-23T15:23:41.392Z,28.93
2022-08-23T15:26:13.490Z,28.87
2022-08-23T15:28:44.192Z,28.82
2022-08-23T15:31:15.511Z,28.63
2022-08-23T15:33:46.011Z,28.71
2022-08-23T15:36:17.662Z,28.75
2022-08-23T15:38:49.958Z,28.54
2022-08-23T15:41:21.177Z,28.81
2022-08-23T15:43:51.696Z,28.63
2022-08-23T15:46:24.558Z,28.70
2022-08-23T15:49:00.007Z,28.68
2022-08-23T15:51:31.049Z,28.55
2022-08-23T15:54:03.895Z,28.51
2022-08-23T15:56:39.225Z,28.49
2022-08-23T15:59:12.988Z,28.25
2022-08-23T16:01:43.386Z,28.25
2022-08-23T16:04:14.093Z,28.18
2022-08-23T16:06:45.544Z,28.17
2022-08-23T16:09:21.945Z,28.14
2022-08-23T16:11:56.087Z,27.98
2022-08-23T16:14:31.176Z,27.93
2022-08-23T16:17:01.767Z,28.11
2022-08-23T16:19:32.855Z,28.08
2022-08-23T16:22:03.572Z,27.91
2022-08-23T16:24:35.062Z,27.89
2022-08-23T16:27:05.876Z,27.85
2022-08-23T16:29:36.560Z,27.82
2022-08-23T16:32:08.127Z,27.61
2022-08-23T16:34:38.438Z,27.91
2022-08-23T16:37:09.720Z,27.90
2022-08-23T16:39:41.729Z,27.93
2022-08-23T16:42:11.813Z,27.67
2022-08-23T16:44:41.914Z,27.45
2022-08-23T16:47:12.883Z,27.54
2022-08-23T16:49:43.540Z,27.63
2022-08-23T16:52:14.582Z,27.36
2022-08-23T16:54:46.101Z,27.51
2022-08-23T16:57:17.790Z,27.48
2022-08-23T16:59:47.987Z,27.42
2022-08-23T17:02:28.535Z,27.42
2022-08-23T17:04:59.450Z,27.30
2022-08-23T17:07:29.724Z,26.74
2022-08-23T17:10:01.497Z,26.33
2022-08-23T17:12:32.645Z,26.22
2022-08-23T17:15:03.641Z,26.06
2022-08-23T17:17:33.563Z,25.99
2022-08-23T17:20:05.036Z,25.86
2022-08-23T17:22:37.779Z,25.87
2022-08-23T17:25:10.835Z,25.74
2022-08-23T17:27:45.909Z,25.68
2022-08-23T17:30:20.029Z,25.77
2022-08-23T17:32:50.516Z,25.85
2022-08-23T17:35:24.436Z,25.81
